Details From TXKF - Bermuda Intl
To MDPP - Puerto Plata Gregorio Luperon Intl
Flight Number -
Tags decoded
Created
Modified
Stats Distance 855 nm / 1,584 km
Max Altitude 0 ft / 0 m
Waypoints 4
Social Downloads 0
Likes 0
Share VATSIM

Download

Looking for another format? Having issues loading an existing format? Contact us
Advertisement - Login to hide

Notes

Requested: TXKF G432 MOFFY GRANN B891 WATRS MDPP Unmatched points: G432 GRANN

Route

TXKF MOFFY WATRS MDPP

ID Type Via Altitude Latitude Longitude Leg Dist Tot Dist Heading (true) Name
O TXKF APT - 0 ft / 0 m 32.36404˚ -64.67868˚ - 0 nm - Bermuda Intl
MOFFY FIX - 0 ft / 0 m 29.38333˚ -65.08333˚ 180 nm 180 nm 187° / 187° -
WATRS FIX - 0 ft / 0 m 21.88755˚ -67.79224˚ 473 nm 653 nm 199° / 197° -
O MDPP APT - 0 ft / 0 m 19.75790˚ -70.57003˚ 201 nm 855 nm 231° / 230° Puerto Plata Gregorio Luperon Intl

Altitude Profile

Advertisement - Login to hide

Weather


0- 5 10 15 20 25 30 35+ Temperature / ° C

Clouds and Precipitation
Forecast for 2018-05-24 12:00 UTC. Updated 3 hours ago

Ground ~20,000 ft ~40,000 ft Winds

TXKF

Details ICAO TXKF (BDA)
Name Bermuda Intl
Region Bermuda
Timezone Unknown (UTC+0.0)
Stats Elevation 12 ft / 4 m (AMSL)
Location 32.364038° -64.678684°
Runways 1
Magnetic Variation 14.767° W

METAR

TXKF 241355Z 25012KT 9999 BKN015 BKN080 OVC300 24/22 Q1019

Decode

TAF

TAF TXKF 241135Z 2412/2512 24015KT 9999 VCSH FEW013 SCT035 BKN050 TEMPO 2412/2415 4800 -SHRA FEW007 SCT013 OVC050 PROB40 TEMPO 2412/2415 3200 SHRA BKN013 PROB30 TEMPO 2412/2415 VRB20G30KT 1600 TSRA BKN007CB PROB40 TEMPO 2420/2424 3200 SHRA BKN012 PROB30 TEMPO 2420/2424 1600 TSRA BKN007CB BECMG 2500/2503 30010KT 9999 VCSH FEW009 SCT015 BECMG 2506/2509 35006KT NSW BECMG 2509/2512 04007KT

Decode

Departure Runways

ID Width Length Bearing (true) Bearing (mag) Surface Threshold Offset Overrun Length
12 150 ft / 46 m 9,701 ft / 2,957 m 101.50° 116.27° Asphalt 0 ft / 0 m 553 ft / 169 m
30 150 ft / 46 m 9,701 ft / 2,957 m 281.52° 296.29° Asphalt 0 ft / 0 m 207 ft / 63 m

MDPP

Details ICAO MDPP (POP)
Name Puerto Plata Gregorio Luperon Intl
Region Dominican Republic
Timezone America/Santo_Domingo (UTC-4.0)
Stats Elevation 15 ft / 5 m (AMSL)
Location 19.757900° -70.570035°
Runways 1
Magnetic Variation 11.259° W

METAR

MDPP 241400Z 09006KT 9999 FEW018 28/23 Q1018 METAR MDST 241400Z 12010KT 9999 SCT018 SCT070 27/23 Q1018

Decode

TAF

Not found

Destination Runways

ID Width Length Bearing (true) Bearing (mag) Surface Threshold Offset Overrun Length
08 151 ft / 46 m 10,101 ft / 3,079 m 72.95° 84.21° Asphalt 0 ft / 0 m 0 ft / 0 m
26 151 ft / 46 m 10,101 ft / 3,079 m 252.95° 264.21° Asphalt 0 ft / 0 m 0 ft / 0 m